עמוד ראשי
METAR-TAF:

METAR-TAF

שדות תעופה :

Malakula, ונואטו

קו רוחב: 16-27-26S, קו אורך: 167-49-42E, גובה: 2מטר

METAR: חסר

זמן: 22:06 (11:06 UTC)

תחזית

הדו"ח נערך לפני 6 שעות ו 6דקות, בשעה 05:00 UTC
תחזית בתוקף מ 15 ב 06 UTC עד 16 ב 06 UTC
רוח 5קשר מכיוון דרום
ראות 10 קילומטר או יותר
עננים פזורים בגובה 2000רגל
יעשה מ
08 ב 00 UTC עד 10 ב 00 UTC
רוח 2קשר עם כיוונים משתנים

TAF: NVSL 150500Z 1506/1606 18005KT 9999 SCT020 BECMG 0800/1000 VRB02KT

תצפיות ותחזיות מזג אוויר לגבי יותר מ- 4,000 שדות תעופה ברחבי העולם. דוחות METAR ו- TAF.

התחנות הזמינות מסומנות בנקודות צהובות ואדומות על גבי המפה.

העבר את העכבר לנקודה הצבעונית על מנת לראות את שם התחנה.

לאחר מכן, לחץ כדי לראות את תוכן ואת תחזיות מזג האוויר.

כדי לשנות את המפה: לחץ על הכפתורים הירוקים עם הפלוס השחור כדי להתקרב; על הכפתור הירוק עם המקף כדי להתרחק; או בחיצים הירוקים למפות סמוכות.


METAR-TAF: